Garden City, Kansas
Current Conditions -  °F | °C
As of 5:54 AM on Saturday 25 Oct 2014 (Local Time) from KGCK Reporting Station
Clear Clear  
Wind Chill: 52°   Ceiling: Unl
Heat Index: 52°   Visibility: 10mi
Dew Point: 42°   Wind: 6mph
Humidity: 69%   Direction: 290°WNW
Pressure: 30.08"   Gusts: NA
Location:  37.97°N, 100.87°W
Report Text: KGCK 251054Z AUTO 29005KT 10SM CLR 11/06 A3008 RMK AO2 SLP159 T01110056
Loading
Personal Weather Stations






























Interactive Weather Map New forecast layout! Learn more

10-Day Weather Forecast

Advertisements
Track Severe Weather on mobile